Time;durP1;ratioP1;P1;durP2;ratioP2;P2;SDS_P1;SDS_P2;PMS_P1;PMS_P2;Temp;Humidity;BMP_temperature;BMP_pressure;BME280_temperature;BME280_humidity;BME280_pressure;Samples;Min_cycle;Max_cycle;Signal;HPM_P1;HPM_P2
2021/12/22 00:01:39;;;;;;;11.63;5.70;;;12.20;55.30;;;;;;4651233;30;20070;-77
2021/12/22 00:04:05;;;;;;;7.45;5.25;;;12.20;55.30;;;;;;4636188;30;20070;-78
2021/12/22 00:06:33;;;;;;;8.88;5.60;;;12.20;55.50;;;;;;4651972;30;20059;-77
2021/12/22 00:08:59;;;;;;;9.05;5.15;;;12.20;55.40;;;;;;4651907;30;20449;-77
2021/12/22 00:11:26;;;;;;;10.68;5.50;;;12.20;55.50;;;;;;4637127;30;20063;-77
2021/12/22 00:13:52;;;;;;;9.35;5.60;;;12.20;55.40;;;;;;4651265;30;20069;-77
2021/12/22 00:16:18;;;;;;;8.73;6.15;;;12.10;55.20;;;;;;4651544;30;20095;-77
2021/12/22 00:18:44;;;;;;;9.90;5.68;;;12.10;55.30;;;;;;4637005;30;20090;-77
2021/12/22 00:21:10;;;;;;;10.57;5.43;;;12.10;55.40;;;;;;4652074;30;20098;-76
2021/12/22 00:23:37;;;;;;;9.65;5.57;;;12.10;55.40;;;;;;4651441;30;20066;-77
2021/12/22 00:26:02;;;;;;;8.93;5.35;;;12.10;55.50;;;;;;4651648;30;20051;-76
2021/12/22 00:28:28;;;;;;;7.43;5.40;;;12.20;55.50;;;;;;4651316;30;20039;-77
2021/12/22 00:30:54;;;;;;;7.65;5.57;;;12.10;55.20;;;;;;4651286;30;20372;-77
2021/12/22 00:33:20;;;;;;;7.05;5.25;;;12.10;55.30;;;;;;4651285;30;20059;-77
2021/12/22 00:35:46;;;;;;;8.82;5.30;;;12.20;55.30;;;;;;4651406;30;20062;-76
2021/12/22 00:38:18;;;;;;;8.13;5.00;;;12.20;55.20;;;;;;4651546;30;20142;-77
2021/12/22 00:40:46;;;;;;;8.60;5.30;;;12.10;55.30;;;;;;4651205;30;20059;-75
2021/12/22 00:43:13;;;;;;;8.90;6.10;;;12.20;55.30;;;;;;4650765;30;20055;-76
2021/12/22 00:45:39;;;;;;;7.15;5.45;;;12.20;55.30;;;;;;4651280;30;20065;-77
2021/12/22 00:48:07;;;;;;;8.00;5.80;;;12.10;55.00;;;;;;4651276;30;20373;-77
2021/12/22 00:50:33;;;;;;;7.20;5.03;;;12.20;55.10;;;;;;4651183;30;20544;-76
2021/12/22 00:52:59;;;;;;;8.88;5.35;;;12.10;54.90;;;;;;4650587;30;20061;-76
2021/12/22 00:55:25;;;;;;;7.93;5.43;;;12.10;55.00;;;;;;4650989;30;20126;-76
2021/12/22 00:57:52;;;;;;;7.28;4.90;;;12.10;55.00;;;;;;4636156;30;20069;-76
2021/12/22 01:00:19;;;;;;;8.07;5.53;;;12.10;55.00;;;;;;4650999;30;20078;-76
2021/12/22 01:02:46;;;;;;;8.35;5.38;;;12.10;54.90;;;;;;4650743;30;20134;-76
2021/12/22 01:05:14;;;;;;;7.68;5.43;;;12.10;55.10;;;;;;4636014;30;20055;-76
2021/12/22 01:07:42;;;;;;;8.93;5.28;;;12.10;55.00;;;;;;4650822;30;20086;-76
2021/12/22 01:10:11;;;;;;;7.28;5.43;;;12.00;54.70;;;;;;4650751;30;20143;-78
2021/12/22 01:12:37;;;;;;;9.23;5.65;;;12.00;54.80;;;;;;4650648;30;20062;-75
2021/12/22 01:15:05;;;;;;;7.85;5.30;;;12.00;54.80;;;;;;4650550;30;20432;-76
2021/12/22 01:17:38;;;;;;;8.73;5.63;;;12.00;54.80;;;;;;4650970;30;20062;-77
2021/12/22 01:20:12;;;;;;;8.18;4.75;;;12.00;54.80;;;;;;4650933;30;20066;-76
2021/12/22 01:25:06;;;;;;;7.30;5.25;;;11.90;53.80;;;;;;4635676;30;19971;-78
2021/12/22 01:27:39;;;;;;;9.05;5.32;;;11.90;54.70;;;;;;4650593;30;20126;-76
2021/12/22 01:30:18;;;;;;;8.68;4.97;;;11.90;54.70;;;;;;4650824;30;20126;-77
2021/12/22 01:32:44;;;;;;;9.65;5.97;;;11.90;54.70;;;;;;4650415;30;20141;-78
2021/12/22 01:35:13;;;;;;;7.78;5.55;;;11.90;54.50;;;;;;4635316;30;20464;-77
2021/12/22 01:37:39;;;;;;;8.18;5.60;;;11.90;54.50;;;;;;4650674;30;20051;-77
2021/12/22 01:40:07;;;;;;;9.73;5.82;;;11.90;54.60;;;;;;4650453;30;20077;-77
2021/12/22 01:42:33;;;;;;;8.05;5.28;;;11.90;54.30;;;;;;4635700;30;20062;-77
2021/12/22 01:50:40;;;;;;;10.18;5.80;;;11.80;54.40;;;;;;4650494;30;20070;-76
2021/12/22 01:53:27;;;;;;;10.05;5.85;;;11.80;54.00;;;;;;4650093;30;20055;-77
2021/12/22 01:56:09;;;;;;;9.70;6.00;;;11.80;54.40;;;;;;4650323;30;20054;-77
2021/12/22 01:58:37;;;;;;;9.05;5.38;;;11.80;54.60;;;;;;4650583;30;20364;-76
2021/12/22 02:01:05;;;;;;;8.88;5.60;;;11.70;54.60;;;;;;4634955;30;20085;-77
2021/12/22 02:03:31;;;;;;;9.10;5.35;;;11.80;54.40;;;;;;4650160;30;20055;-77
2021/12/22 02:05:56;;;;;;;8.27;5.30;;;11.80;54.40;;;;;;4650459;30;20793;-77
2021/12/22 02:08:22;;;;;;;6.43;4.88;;;11.70;54.40;;;;;;4649937;30;20051;-76
2021/12/22 02:10:49;;;;;;;9.85;6.13;;;11.70;54.30;;;;;;4635120;30;20061;-77
2021/12/22 02:13:21;;;;;;;9.23;5.40;;;11.70;54.40;;;;;;4634691;30;20121;-76
2021/12/22 02:15:47;;;;;;;7.90;5.30;;;11.70;54.50;;;;;;4650948;30;20424;-77
2021/12/22 02:18:17;;;;;;;8.55;5.82;;;11.70;54.30;;;;;;4650202;30;20073;-77
2021/12/22 02:20:44;;;;;;;7.15;4.95;;;11.70;54.20;;;;;;4650590;30;20102;-77
2021/12/22 02:23:10;;;;;;;5.82;4.45;;;11.70;54.40;;;;;;4649830;30;20070;-78
2021/12/22 02:25:44;;;;;;;8.85;5.88;;;11.60;54.20;;;;;;4650305;30;20051;-75
2021/12/22 02:28:17;;;;;;;;;;;11.70;54.30;;;;;;4652620;30;20504;-78
2021/12/22 02:30:43;;;;;;;7.10;5.57;;;11.70;53.00;;;;;;4653482;30;19939;-77
2021/12/22 02:33:21;;;;;;;7.13;5.40;;;11.60;54.80;;;;;;4638015;30;20090;-77
2021/12/22 02:38:41;;;;;;;7.15;5.22;;;11.60;54.20;;;;;;4638263;30;20358;-78
2021/12/22 02:41:10;;;;;;;;;;;11.60;54.20;;;;;;4638858;30;20476;-77
2021/12/22 02:43:43;;;;;;;8.77;5.55;;;11.50;52.90;;;;;;4652991;30;19971;-77
2021/12/22 02:46:09;;;;;;;;;;;11.50;54.20;;;;;;4638832;30;20059;-76
2021/12/22 02:48:35;;;;;;;8.43;5.60;;;11.50;53.00;;;;;;4653217;30;19936;-76
2021/12/22 02:51:02;;;;;;;8.45;6.10;;;11.50;54.20;;;;;;4623964;30;20142;-75
2021/12/22 02:53:41;;;;;;;7.53;5.65;;;11.50;54.40;;;;;;4652730;30;20047;-76
2021/12/22 02:56:27;;;;;;;7.60;5.63;;;11.50;54.30;;;;;;4653722;30;20139;-77
2021/12/22 03:04:03;;;;;;;7.20;5.20;;;11.50;54.20;;;;;;4637780;30;20058;-77
2021/12/22 03:08:55;;;;;;;9.20;5.45;;;11.50;54.40;;;;;;4653251;30;20078;-76
2021/12/22 03:11:21;;;;;;;7.47;5.90;;;11.50;54.30;;;;;;4652948;30;20063;-75
2021/12/22 03:13:47;;;;;;;6.95;5.38;;;11.40;54.10;;;;;;4652384;30;20057;-77
2021/12/22 03:16:13;;;;;;;8.10;5.70;;;11.40;54.20;;;;;;4652841;30;20058;-76
2021/12/22 03:18:39;;;;;;;8.25;5.82;;;11.30;54.10;;;;;;4651755;30;20357;-75
2021/12/22 03:21:23;;;;;;;6.57;5.32;;;11.30;54.20;;;;;;4652559;30;20129;-77
2021/12/22 03:23:52;;;;;;;7.38;5.68;;;11.30;54.10;;;;;;4652272;30;20055;-76
2021/12/22 03:26:19;;;;;;;8.20;5.40;;;11.30;54.10;;;;;;4652407;30;20453;-77
2021/12/22 03:28:45;;;;;;;7.15;5.78;;;11.30;54.10;;;;;;4652663;30;20074;-77
2021/12/22 03:31:12;;;;;;;8.82;6.18;;;11.30;54.20;;;;;;4637345;30;20073;-76
2021/12/22 03:33:38;;;;;;;7.75;5.50;;;11.30;54.10;;;;;;4651707;30;20145;-76
2021/12/22 03:36:04;;;;;;;8.88;5.40;;;11.20;54.10;;;;;;4652622;30;20063;-76
2021/12/22 03:38:32;;;;;;;7.35;5.57;;;11.20;54.20;;;;;;4637666;30;20065;-77
2021/12/22 03:40:58;;;;;;;6.88;5.32;;;11.20;54.20;;;;;;4652304;30;20526;-77
2021/12/22 03:43:23;;;;;;;7.50;5.28;;;11.30;54.30;;;;;;4637026;30;20117;-77
2021/12/22 03:45:49;;;;;;;7.25;5.50;;;11.20;54.10;;;;;;4652443;30;20098;-77
2021/12/22 03:48:17;;;;;;;7.15;5.35;;;11.20;54.00;;;;;;4651910;30;20384;-77
2021/12/22 03:50:43;;;;;;;6.70;5.30;;;11.20;54.00;;;;;;4637650;30;20073;-76
2021/12/22 03:53:09;;;;;;;6.13;5.05;;;11.20;54.00;;;;;;4652003;30;20062;-77
2021/12/22 03:55:35;;;;;;;6.60;5.25;;;11.20;54.10;;;;;;4652053;30;20067;-77
2021/12/22 03:58:01;;;;;;;8.55;5.30;;;11.20;53.90;;;;;;4652068;30;20051;-77
2021/12/22 04:00:26;;;;;;;6.93;5.45;;;11.10;53.90;;;;;;4651592;30;20074;-75
2021/12/22 04:02:52;;;;;;;7.88;5.45;;;11.10;53.90;;;;;;4651690;30;20136;-77
2021/12/22 04:05:19;;;;;;;8.40;5.82;;;11.10;53.80;;;;;;4651758;30;20547;-76
2021/12/22 04:07:44;;;;;;;9.55;6.28;;;11.10;53.80;;;;;;4636940;30;20451;-75
2021/12/22 04:10:21;;;;;;;8.32;5.65;;;11.00;54.00;;;;;;4651726;30;20054;-76
2021/12/22 04:12:55;;;;;;;8.35;5.45;;;11.00;53.70;;;;;;4651676;30;20063;-76
2021/12/22 04:15:23;;;;;;;7.50;5.38;;;11.10;54.00;;;;;;4652009;30;20413;-78
2021/12/22 04:17:49;;;;;;;6.72;5.05;;;11.00;53.70;;;;;;4651901;30;20452;-75
2021/12/22 04:20:15;;;;;;;7.03;5.72;;;11.00;54.00;;;;;;4651495;30;20449;-76
2021/12/22 04:22:41;;;;;;;6.88;5.07;;;11.10;54.00;;;;;;4636693;30;20058;-77
2021/12/22 04:25:09;;;;;;;10.57;6.00;;;11.00;53.90;;;;;;4636747;30;20132;-76
2021/12/22 04:27:35;;;;;;;7.78;5.18;;;11.00;53.80;;;;;;4637318;30;20344;-78
2021/12/22 04:30:02;;;;;;;8.52;5.53;;;11.00;53.80;;;;;;4636755;30;20389;-76
2021/12/22 04:32:28;;;;;;;6.72;5.43;;;11.00;53.70;;;;;;4651007;30;20059;-76
2021/12/22 04:34:54;;;;;;;7.68;5.40;;;11.00;53.80;;;;;;4651335;30;20066;-76
2021/12/22 04:37:19;;;;;;;8.52;5.72;;;11.00;53.80;;;;;;4650625;30;20122;-76
2021/12/22 04:39:45;;;;;;;7.75;5.45;;;10.90;53.60;;;;;;4651642;30;20101;-76
2021/12/22 04:42:11;;;;;;;7.72;5.47;;;10.90;53.60;;;;;;4650384;30;20051;-75
2021/12/22 04:44:37;;;;;;;9.80;6.00;;;10.80;53.50;;;;;;4651394;30;20536;-76
2021/12/22 04:47:03;;;;;;;7.43;5.50;;;10.80;53.70;;;;;;4651108;30;20063;-76
2021/12/22 04:49:29;;;;;;;7.10;5.28;;;10.80;53.70;;;;;;4650863;30;20055;-76
2021/12/22 04:51:56;;;;;;;9.55;5.65;;;10.80;53.70;;;;;;4635789;30;20341;-76
2021/12/22 04:56:54;;;;;;;10.02;5.97;;;10.80;53.60;;;;;;4636309;30;20067;-76
2021/12/22 04:59:20;;;;;;;9.80;6.35;;;10.80;53.60;;;;;;4650899;30;20063;-76
2021/12/22 05:01:46;;;;;;;8.40;5.95;;;10.70;53.40;;;;;;4650444;30;20141;-76
2021/12/22 05:04:12;;;;;;;6.75;5.85;;;10.70;53.40;;;;;;4651435;30;20456;-75
2021/12/22 05:06:38;;;;;;;8.65;5.70;;;10.60;53.50;;;;;;4650943;30;20357;-76
2021/12/22 05:09:04;;;;;;;7.90;6.00;;;10.60;53.60;;;;;;4636623;30;20066;-77
2021/12/22 05:11:30;;;;;;;10.25;6.68;;;10.60;53.70;;;;;;4649807;30;20354;-76
2021/12/22 05:13:56;;;;;;;10.32;6.28;;;10.60;53.50;;;;;;4635722;30;20058;-77
2021/12/22 05:16:22;;;;;;;8.70;5.65;;;10.60;53.60;;;;;;4651254;30;20364;-76
2021/12/22 05:18:57;;;;;;;9.02;5.45;;;10.60;53.60;;;;;;4650780;30;20059;-76
2021/12/22 05:21:24;;;;;;;9.43;5.85;;;10.60;53.50;;;;;;4650718;30;20444;-75
2021/12/22 05:23:51;;;;;;;8.38;5.78;;;10.70;53.70;;;;;;4650036;30;20051;-75
2021/12/22 05:26:18;;;;;;;7.95;5.95;;;10.70;53.70;;;;;;4649544;30;20059;-76
2021/12/22 05:28:44;;;;;;;10.82;6.25;;;10.80;54.00;;;;;;4637617;30;20078;-76
2021/12/22 05:31:13;;;;;;;11.85;7.07;;;10.90;53.60;;;;;;4634919;30;20051;-86
2021/12/22 05:33:38;;;;;;;11.40;7.25;;;11.00;53.50;;;;;;4635423;30;20097;-70
2021/12/22 05:36:05;;;;;;;11.20;7.53;;;11.10;52.00;;;;;;4650570;30;20065;-74
2021/12/22 05:38:31;;;;;;;12.50;7.65;;;11.10;50.90;;;;;;4640477;30;20123;-74
2021/12/22 05:40:57;;;;;;;12.43;8.63;;;11.20;50.10;;;;;;4634045;31;20059;-74
2021/12/22 05:43:22;;;;;;;12.63;8.43;;;11.20;49.50;;;;;;4635733;30;20495;-68
2021/12/22 05:45:48;;;;;;;12.77;8.02;;;11.20;48.90;;;;;;4640868;30;20047;-72
2021/12/22 05:48:15;;;;;;;13.40;8.35;;;11.20;48.50;;;;;;4633704;31;20154;-75
2021/12/22 05:50:45;;;;;;;12.52;7.95;;;11.20;48.30;;;;;;4628546;30;20129;-74
2021/12/22 05:53:11;;;;;;;12.85;8.23;;;11.20;48.50;;;;;;4620976;30;20061;-76
2021/12/22 05:55:37;;;;;;;11.32;7.60;;;11.20;49.00;;;;;;4650146;30;20055;-72
2021/12/22 05:58:02;;;;;;;19.80;7.75;;;11.10;50.40;;;;;;4649584;30;20074;-75
2021/12/22 06:00:28;;;;;;;13.38;7.55;;;11.20;51.80;;;;;;4650243;30;20063;-75
2021/12/22 06:02:54;;;;;;;23.27;9.05;;;11.20;52.30;;;;;;4653044;30;20516;-75
2021/12/22 06:05:19;;;;;;;11.73;7.38;;;11.40;54.40;;;;;;4639023;30;20090;-71
2021/12/22 06:07:46;;;;;;;10.82;6.25;;;11.70;54.50;;;;;;4653804;30;20090;-75
2021/12/22 06:10:14;;;;;;;14.05;5.53;;;12.00;54.30;;;;;;4653527;30;20063;-77
2021/12/22 06:12:40;;;;;;;18.25;6.53;;;12.30;55.20;;;;;;4638788;30;20050;-74
2021/12/22 06:15:06;;;;;;;11.65;5.10;;;12.50;54.90;;;;;;4653592;30;20074;-76
2021/12/22 06:17:32;;;;;;;10.70;5.75;;;12.70;54.30;;;;;;4653513;30;20113;-75
2021/12/22 06:19:57;;;;;;;14.63;6.03;;;13.00;54.90;;;;;;4653280;30;20137;-75
2021/12/22 06:22:24;;;;;;;13.43;4.90;;;13.30;55.00;;;;;;4653152;30;20342;-77
2021/12/22 06:24:49;;;;;;;12.43;5.32;;;13.50;55.30;;;;;;4652126;30;20062;-74
2021/12/22 06:27:15;;;;;;;12.85;5.25;;;13.70;55.40;;;;;;4638575;30;20061;-75
2021/12/22 06:29:41;;;;;;;16.73;5.30;;;13.80;55.40;;;;;;4624466;30;20051;-74
2021/12/22 06:32:07;;;;;;;8.68;4.28;;;14.00;55.60;;;;;;4653471;30;20125;-76
2021/12/22 06:34:33;;;;;;;8.82;4.00;;;14.20;55.60;;;;;;4638604;30;20062;-74
2021/12/22 06:36:59;;;;;;;9.98;4.28;;;14.30;55.70;;;;;;4653212;30;20373;-76
2021/12/22 06:39:25;;;;;;;11.57;3.90;;;14.40;55.70;;;;;;4652001;30;20142;-74
2021/12/22 06:41:51;;;;;;;11.98;4.80;;;14.50;55.70;;;;;;4638454;30;20419;-73
2021/12/22 06:44:16;;;;;;;7.95;4.43;;;14.40;55.70;;;;;;4653323;30;20151;-73
2021/12/22 06:46:43;;;;;;;13.02;4.95;;;14.60;55.80;;;;;;4653812;30;20058;-68
2021/12/22 06:49:10;;;;;;;13.27;4.55;;;14.70;55.80;;;;;;4637880;30;20125;-69
2021/12/22 06:51:36;;;;;;;9.05;3.92;;;14.70;55.80;;;;;;4638542;30;20066;-73
2021/12/22 06:54:02;;;;;;;12.30;4.47;;;14.80;55.90;;;;;;4651756;30;20445;-74
2021/12/22 06:56:28;;;;;;;16.02;4.13;;;14.80;56.00;;;;;;4637598;30;20461;-73
2021/12/22 06:58:56;;;;;;;12.50;4.90;;;14.80;56.20;;;;;;4653221;30;20134;-73
2021/12/22 07:01:22;;;;;;;9.93;4.22;;;14.80;55.70;;;;;;4637768;30;20071;-72
2021/12/22 07:03:48;;;;;;;16.20;4.88;;;14.80;55.20;;;;;;4652982;30;20136;-72
2021/12/22 07:06:14;;;;;;;10.18;4.35;;;14.90;55.30;;;;;;4637821;30;20531;-73
2021/12/22 07:08:41;;;;;;;11.73;4.90;;;15.00;55.40;;;;;;4652614;30;20098;-74
2021/12/22 07:11:07;;;;;;;11.60;4.10;;;15.10;55.50;;;;;;4652887;30;20385;-72
2021/12/22 07:13:33;;;;;;;7.78;3.90;;;15.20;55.50;;;;;;4652409;30;20436;-73
2021/12/22 07:15:59;;;;;;;11.45;4.38;;;15.30;56.10;;;;;;4653354;30;20063;-72
2021/12/22 07:18:25;;;;;;;10.77;4.53;;;15.40;55.50;;;;;;4638011;30;20368;-74
2021/12/22 07:20:51;;;;;;;13.30;4.78;;;15.40;55.50;;;;;;4652702;30;20142;-73
2021/12/22 07:23:17;;;;;;;9.45;4.25;;;15.50;55.40;;;;;;4637785;30;20138;-74
2021/12/22 07:25:42;;;;;;;9.68;4.30;;;15.60;55.30;;;;;;4652718;30;20133;-73
2021/12/22 07:28:11;;;;;;;9.77;4.22;;;15.70;55.20;;;;;;4652644;30;20386;-76
2021/12/22 07:30:37;;;;;;;9.07;4.45;;;15.80;55.10;;;;;;4637670;30;20453;-76
2021/12/22 07:33:03;;;;;;;10.40;4.38;;;15.80;55.00;;;;;;4652395;30;20157;-75
2021/12/22 07:35:59;;;;;;;9.55;4.70;;;15.90;55.00;;;;;;4637579;30;20055;-75
2021/12/22 07:38:24;;;;;;;8.48;4.43;;;16.00;55.10;;;;;;4637598;30;20473;-74
2021/12/22 07:40:56;;;;;;;11.45;4.63;;;16.00;55.10;;;;;;4651679;30;20125;-76
2021/12/22 07:43:22;;;;;;;9.90;5.07;;;16.10;55.10;;;;;;4637514;30;20063;-75
2021/12/22 07:45:48;;;;;;;11.15;4.82;;;16.10;55.00;;;;;;4644967;30;20054;-75
2021/12/22 07:48:14;;;;;;;10.07;4.50;;;16.20;55.00;;;;;;4620555;31;20063;-75
2021/12/22 07:50:40;;;;;;;15.68;4.78;;;16.30;55.00;;;;;;4628596;30;20366;-73
2021/12/22 07:53:06;;;;;;;11.63;4.97;;;16.30;55.00;;;;;;4623057;30;20059;-73
2021/12/22 07:55:35;;;;;;;15.07;4.97;;;16.40;54.40;;;;;;4616976;31;20053;-72
2021/12/22 07:58:01;;;;;;;11.05;4.20;;;16.30;54.00;;;;;;4635106;30;20055;-73
2021/12/22 08:00:27;;;;;;;15.50;5.28;;;16.30;53.70;;;;;;4634976;30;20070;-74
2021/12/22 08:03:02;;;;;;;12.77;5.43;;;16.40;53.70;;;;;;4639951;30;20507;-74
2021/12/22 08:05:28;;;;;;;16.20;4.68;;;16.40;53.70;;;;;;4626677;30;20500;-75
2021/12/22 08:07:56;;;;;;;14.88;5.25;;;16.40;53.70;;;;;;4637778;30;20115;-73
2021/12/22 08:10:22;;;;;;;11.80;4.65;;;16.50;53.80;;;;;;4620080;31;20491;-72
2021/12/22 08:12:48;;;;;;;18.92;5.07;;;16.40;54.00;;;;;;4613612;30;20059;-74
2021/12/22 08:15:15;;;;;;;10.38;5.03;;;16.50;54.00;;;;;;4630546;30;20055;-75
2021/12/22 08:17:42;;;;;;;13.23;5.13;;;16.50;53.60;;;;;;4649551;30;20177;-78
2021/12/22 08:20:09;;;;;;;14.38;5.38;;;16.50;53.30;;;;;;4649965;30;20087;-76
2021/12/22 08:22:35;;;;;;;17.50;4.93;;;16.40;53.60;;;;;;4637830;30;20061;-77
2021/12/22 08:25:01;;;;;;;14.25;5.55;;;16.40;53.60;;;;;;4635675;30;20055;-77
2021/12/22 08:27:27;;;;;;;8.68;4.70;;;16.40;53.50;;;;;;4636261;30;20059;-77
2021/12/22 08:29:53;;;;;;;13.57;5.35;;;16.50;53.50;;;;;;4664948;30;20069;-77
2021/12/22 08:32:19;;;;;;;8.18;4.72;;;16.60;53.30;;;;;;4668323;30;20395;-75
2021/12/22 08:34:47;;;;;;;14.48;5.20;;;16.60;53.10;;;;;;4653295;30;20131;-77
2021/12/22 08:39:59;;;;;;;15.10;5.70;;;16.70;52.70;;;;;;4667852;30;20058;-76
2021/12/22 08:42:25;;;;;;;10.00;4.80;;;16.60;51.00;;;;;;4648013;30;20059;-76
2021/12/22 08:44:52;;;;;;;13.05;4.25;;;16.50;52.70;;;;;;4647758;30;20059;-76
2021/12/22 08:47:25;;;;;;;8.80;4.50;;;16.60;52.60;;;;;;5133622;27;20370;-76
2021/12/22 08:49:51;;;;;;;10.80;4.47;;;16.60;52.50;;;;;;5113059;28;20048;-78
2021/12/22 08:52:17;;;;;;;17.70;6.13;;;16.60;52.30;;;;;;5112430;28;20378;-75
2021/12/22 08:54:43;;;;;;;9.73;4.50;;;16.30;52.40;;;;;;5098562;28;20505;-78
2021/12/22 08:57:09;;;;;;;12.15;5.07;;;16.30;52.90;;;;;;5103962;28;20058;-76
2021/12/22 08:59:34;;;;;;;9.13;5.22;;;16.50;52.40;;;;;;5077835;28;20066;-79
2021/12/22 09:02:00;;;;;;;13.05;4.95;;;16.60;52.30;;;;;;5094301;28;20044;-76
2021/12/22 09:04:26;;;;;;;10.65;5.10;;;16.60;52.20;;;;;;5092805;28;20431;-79
2021/12/22 09:06:53;;;;;;;11.10;4.13;;;16.60;52.70;;;;;;5074401;28;20043;-77
2021/12/22 09:09:20;;;;;;;11.23;4.97;;;16.70;52.80;;;;;;5075717;28;20434;-76
2021/12/22 09:11:47;;;;;;;15.88;5.03;;;16.70;52.80;;;;;;5077404;28;20123;-76
2021/12/22 09:14:14;;;;;;;10.95;5.05;;;16.90;53.10;;;;;;5086691;28;20048;-75
2021/12/22 09:16:40;;;;;;;12.30;5.32;;;16.90;52.30;;;;;;5091124;28;20181;-76
2021/12/22 09:19:07;;;;;;;15.50;5.32;;;16.90;51.60;;;;;;5091092;28;20120;-77
2021/12/22 09:21:33;;;;;;;19.13;5.80;;;16.90;51.60;;;;;;5091413;28;20133;-79
2021/12/22 09:23:59;;;;;;;16.55;6.22;;;16.90;51.70;;;;;;5073846;28;20375;-76
2021/12/22 09:26:25;;;;;;;18.33;5.60;;;16.90;51.90;;;;;;5099607;28;20046;-72
2021/12/22 09:28:52;;;;;;;16.75;6.32;;;16.80;52.60;;;;;;5092684;28;20028;-75
2021/12/22 09:31:18;;;;;;;15.35;7.47;;;16.70;52.60;;;;;;5101515;28;20051;-75
2021/12/22 09:33:44;;;;;;;20.38;8.05;;;16.60;51.00;;;;;;5093966;28;20048;-74
2021/12/22 09:36:11;;;;;;;14.50;7.82;;;16.30;50.00;;;;;;5112058;28;20043;-74
2021/12/22 09:38:37;;;;;;;20.33;7.70;;;16.20;49.30;;;;;;5112013;28;20379;-75
2021/12/22 09:41:04;;;;;;;16.95;7.68;;;16.10;48.40;;;;;;5104686;28;20359;-75
2021/12/22 09:43:30;;;;;;;12.57;7.65;;;16.00;47.50;;;;;;5091519;28;20114;-77
2021/12/22 09:46:02;;;;;;;12.57;7.90;;;15.90;46.70;;;;;;5091295;28;20049;-76
2021/12/22 09:53:36;;;;;;;13.10;6.80;;;15.60;46.50;;;;;;5112132;28;20359;-76
2021/12/22 09:56:03;;;;;;;11.15;7.07;;;15.50;46.60;;;;;;5112066;28;20104;-77
2021/12/22 09:58:29;;;;;;;13.35;7.15;;;15.50;47.00;;;;;;5100522;28;20335;-74
2021/12/22 10:00:56;;;;;;;11.25;6.65;;;15.40;47.20;;;;;;5059070;28;20451;-75
2021/12/22 10:03:23;;;;;;;9.18;6.00;;;15.40;47.60;;;;;;5079137;28;20052;-76
2021/12/22 10:05:49;;;;;;;11.13;6.53;;;15.30;47.70;;;;;;5078227;28;20058;-75
2021/12/22 10:08:18;;;;;;;11.68;7.03;;;15.30;47.90;;;;;;5077280;28;20055;-74
2021/12/22 10:10:50;;;;;;;10.73;5.82;;;15.20;48.20;;;;;;5059903;28;20386;-76
2021/12/22 10:13:21;;;;;;;9.45;5.88;;;15.10;48.50;;;;;;5060229;28;20059;-75
2021/12/22 10:15:48;;;;;;;11.02;5.47;;;15.10;49.40;;;;;;5077698;28;20040;-75
2021/12/22 10:18:20;;;;;;;12.00;6.88;;;15.10;49.20;;;;;;5077744;28;20383;-75
2021/12/22 10:20:48;;;;;;;7.57;6.03;;;15.10;49.40;;;;;;5077525;28;20036;-77
2021/12/22 10:23:24;;;;;;;8.13;6.20;;;15.00;49.90;;;;;;5075351;28;20044;-75
2021/12/22 10:26:01;;;;;;;8.45;6.47;;;15.00;50.00;;;;;;5097661;28;20447;-74
2021/12/22 10:28:30;;;;;;;8.65;5.53;;;14.90;50.40;;;;;;5079915;28;20501;-77
2021/12/22 10:30:58;;;;;;;9.90;6.60;;;14.90;50.70;;;;;;5097722;28;20364;-76
2021/12/22 10:33:29;;;;;;;6.82;5.55;;;14.80;51.10;;;;;;5079719;28;20479;-75
2021/12/22 10:36:13;;;;;;;9.73;6.30;;;14.90;51.30;;;;;;5077581;28;20075;-75
2021/12/22 10:38:39;;;;;;;;;;;14.80;51.30;;;;;;5078352;28;20064;-76
2021/12/22 10:41:09;;;;;;;8.23;5.35;;;14.80;51.00;;;;;;5076726;28;20017;-76
2021/12/22 10:43:42;;;;;;;7.78;5.25;;;14.70;51.30;;;;;;5095024;28;20055;-76
2021/12/22 10:46:14;;;;;;;11.85;6.03;;;14.70;50.90;;;;;;5079188;28;20067;-76
2021/12/22 10:51:31;;;;;;;8.80;6.13;;;14.60;50.90;;;;;;5079052;28;20047;-76
2021/12/22 10:53:59;;;;;;;7.78;6.22;;;14.60;50.90;;;;;;5077379;28;20354;-74
2021/12/22 10:56:33;;;;;;;10.43;6.10;;;14.60;51.10;;;;;;5076817;28;20059;-75
2021/12/22 10:59:08;;;;;;;7.80;5.93;;;14.60;50.90;;;;;;5076888;28;20127;-76
2021/12/22 11:01:36;;;;;;;6.95;5.45;;;14.50;51.00;;;;;;5058901;28;20049;-76
2021/12/22 11:04:06;;;;;;;6.80;5.43;;;14.50;51.10;;;;;;5076328;28;20105;-75
2021/12/22 11:06:35;;;;;;;8.95;5.20;;;14.50;51.20;;;;;;5076853;28;20071;-74
2021/12/22 11:09:13;;;;;;;8.13;6.10;;;14.50;51.40;;;;;;5075377;28;20059;-76
2021/12/22 11:11:43;;;;;;;7.60;5.32;;;14.50;51.40;;;;;;5076155;28;20060;-75
2021/12/22 11:14:24;;;;;;;7.85;5.80;;;14.50;51.50;;;;;;5076295;28;20055;-76
2021/12/22 11:17:00;;;;;;;8.85;6.22;;;14.40;51.70;;;;;;5058752;28;20198;-76
2021/12/22 11:19:30;;;;;;;9.52;6.18;;;14.40;51.70;;;;;;5058365;28;20463;-76
2021/12/22 11:22:09;;;;;;;8.15;5.85;;;14.40;52.00;;;;;;5076701;28;20430;-75
2021/12/22 11:24:42;;;;;;;9.43;5.97;;;14.40;52.20;;;;;;5076186;28;20114;-76
2021/12/22 11:27:09;;;;;;;8.93;5.55;;;14.40;52.50;;;;;;5076247;28;20109;-74
2021/12/22 11:29:38;;;;;;;7.55;5.60;;;14.40;52.30;;;;;;5076326;28;20131;-74
2021/12/22 11:32:06;;;;;;;8.15;5.15;;;14.30;52.20;;;;;;5061475;28;20144;-76
2021/12/22 11:34:35;;;;;;;8.85;6.00;;;14.30;52.20;;;;;;5096727;28;20055;-75
2021/12/22 11:37:04;;;;;;;8.35;5.88;;;14.30;52.30;;;;;;5096530;28;20140;-75
2021/12/22 11:39:31;;;;;;;8.73;6.25;;;14.30;52.30;;;;;;5096314;28;20048;-75
2021/12/22 11:42:01;;;;;;;7.22;5.43;;;14.20;52.60;;;;;;5077789;28;20062;-74
2021/12/22 11:44:29;;;;;;;8.07;5.90;;;14.30;52.50;;;;;;5095866;28;20509;-74
2021/12/22 11:47:01;;;;;;;8.20;6.05;;;14.20;52.20;;;;;;5095660;28;20454;-74
2021/12/22 11:49:29;;;;;;;7.65;5.10;;;14.20;52.20;;;;;;5096115;28;20062;-74
2021/12/22 11:51:56;;;;;;;6.80;5.38;;;14.20;52.30;;;;;;5095263;28;20044;-76
2021/12/22 11:54:27;;;;;;;8.63;5.50;;;14.20;52.30;;;;;;5075659;28;20044;-75
2021/12/22 11:56:56;;;;;;;7.70;5.88;;;14.20;52.60;;;;;;5075459;28;20052;-75
2021/12/22 11:59:30;;;;;;;7.05;5.15;;;14.20;52.50;;;;;;5078559;28;20059;-75
2021/12/22 12:02:15;;;;;;;7.57;5.18;;;14.20;52.30;;;;;;5073958;28;20047;-76
2021/12/22 12:04:41;;;;;;;8.77;5.75;;;14.10;52.20;;;;;;5075688;28;20059;-76
2021/12/22 12:07:07;;;;;;;6.80;5.40;;;14.10;52.60;;;;;;5075226;28;20083;-76
2021/12/22 12:09:33;;;;;;;9.13;5.68;;;14.10;52.60;;;;;;5075384;28;20079;-76
2021/12/22 12:12:04;;;;;;;7.85;5.25;;;14.10;52.70;;;;;;5065000;28;20451;-76
2021/12/22 12:23:29;;;;;;;7.20;5.25;;;14.00;52.60;;;;;;5061600;28;20056;-75
2021/12/22 12:26:02;;;;;;;7.25;5.78;;;14.00;52.50;;;;;;5074861;28;20440;-75
2021/12/22 12:28:28;;;;;;;8.90;5.70;;;14.00;52.70;;;;;;5074964;28;20052;-75
2021/12/22 12:30:58;;;;;;;9.73;5.80;;;14.00;52.70;;;;;;5075313;28;20421;-76
2021/12/22 12:33:26;;;;;;;6.28;4.60;;;14.00;52.70;;;;;;5092505;28;20051;-77
2021/12/22 12:36:04;;;;;;;9.95;5.82;;;14.00;52.70;;;;;;5095141;28;20181;-74
2021/12/22 12:38:50;;;;;;;8.20;5.47;;;14.00;52.60;;;;;;5095000;28;20048;-76
2021/12/22 12:41:29;;;;;;;8.13;5.25;;;14.00;52.50;;;;;;5077642;28;20047;-75
2021/12/22 12:44:03;;;;;;;8.45;5.88;;;14.00;52.60;;;;;;5075070;28;20094;-74
2021/12/22 12:46:35;;;;;;;7.25;4.95;;;14.00;52.80;;;;;;5074669;28;20087;-75
2021/12/22 12:49:06;;;;;;;8.80;5.70;;;14.00;52.60;;;;;;5074989;28;20060;-74
2021/12/22 12:51:45;;;;;;;6.78;5.80;;;14.10;52.80;;;;;;5059618;28;20341;-76
2021/12/22 12:54:17;;;;;;;8.20;5.35;;;14.10;52.70;;;;;;5095303;28;20052;-76
2021/12/22 12:56:43;;;;;;;9.10;5.78;;;14.10;52.60;;;;;;5077303;28;20048;-76
2021/12/22 12:59:14;;;;;;;6.30;5.30;;;14.00;52.80;;;;;;5077247;28;20478;-75
2021/12/22 13:01:45;;;;;;;8.25;5.55;;;14.10;52.60;;;;;;5091800;28;20119;-76
2021/12/22 13:04:23;;;;;;;7.68;5.55;;;14.10;52.40;;;;;;5057185;28;20456;-73
2021/12/22 13:06:50;;;;;;;7.65;5.72;;;14.10;52.40;;;;;;5075002;28;20364;-72
2021/12/22 13:09:24;;;;;;;10.02;5.75;;;14.10;52.50;;;;;;5075015;28;20044;-75
2021/12/22 13:17:25;;;;;;;12.48;5.78;;;14.10;52.40;;;;;;5073621;28;20060;-72
2021/12/22 13:19:54;;;;;;;15.55;6.28;;;14.30;52.10;;;;;;5074435;28;20045;-76
2021/12/22 13:22:29;;;;;;;11.40;6.25;;;14.50;52.20;;;;;;5047604;28;20048;-79
2021/12/22 13:25:04;;;;;;;12.77;5.40;;;14.70;51.50;;;;;;5076618;28;20052;-78
2021/12/22 13:27:30;;;;;;;14.00;6.15;;;14.90;50.90;;;;;;5076730;28;20040;-76
2021/12/22 13:30:18;;;;;;;12.05;5.65;;;15.10;50.60;;;;;;5094648;28;20371;-78
2021/12/22 13:33:02;;;;;;;11.35;5.78;;;15.40;49.70;;;;;;5085163;28;20048;-78
2021/12/22 13:35:40;;;;;;;10.43;6.97;;;15.60;49.30;;;;;;5043982;28;20091;-73